sensor_id;sensor_type;location;lat;lon;timestamp;temperature;humidity
13203;DHT22;6666;51.626;7.530;2023-06-05T00:00:32;14.40;99.90
13203;DHT22;6666;51.626;7.530;2023-06-05T00:03:00;14.30;99.90
13203;DHT22;6666;51.626;7.530;2023-06-05T00:05:29;14.30;99.90
13203;DHT22;6666;51.626;7.530;2023-06-05T00:07:58;14.30;99.90
13203;DHT22;6666;51.626;7.530;2023-06-05T00:10:26;14.20;99.90
13203;DHT22;6666;51.626;7.530;2023-06-05T00:12:56;14.20;99.90
13203;DHT22;6666;51.626;7.530;2023-06-05T00:15:24;14.20;99.90
13203;DHT22;6666;51.626;7.530;2023-06-05T00:17:52;14.10;99.90
13203;DHT22;6666;51.626;7.530;2023-06-05T00:20:22;14.00;99.90
13203;DHT22;6666;51.626;7.530;2023-06-05T00:22:50;13.90;99.90
13203;DHT22;6666;51.626;7.530;2023-06-05T00:25:18;13.90;99.90
13203;DHT22;6666;51.626;7.530;2023-06-05T00:27:47;13.90;99.90
13203;DHT22;6666;51.626;7.530;2023-06-05T00:30:16;13.90;99.90
13203;DHT22;6666;51.626;7.530;2023-06-05T00:32:44;13.90;99.90
13203;DHT22;6666;51.626;7.530;2023-06-05T00:35:14;13.80;99.90
13203;DHT22;6666;51.626;7.530;2023-06-05T00:37:42;13.80;99.90
13203;DHT22;6666;51.626;7.530;2023-06-05T00:40:13;13.80;99.90
13203;DHT22;6666;51.626;7.530;2023-06-05T00:42:42;13.80;99.90
13203;DHT22;6666;51.626;7.530;2023-06-05T00:45:10;13.70;99.90
13203;DHT22;6666;51.626;7.530;2023-06-05T00:47:40;13.70;99.90
13203;DHT22;6666;51.626;7.530;2023-06-05T00:50:10;13.60;99.90
13203;DHT22;6666;51.626;7.530;2023-06-05T00:52:41;13.60;99.90
13203;DHT22;6666;51.626;7.530;2023-06-05T00:55:10;13.50;99.90
13203;DHT22;6666;51.626;7.530;2023-06-05T00:57:39;13.50;99.90
13203;DHT22;6666;51.626;7.530;2023-06-05T01:00:09;13.50;99.90
13203;DHT22;6666;51.626;7.530;2023-06-05T01:02:41;13.50;99.90
13203;DHT22;6666;51.626;7.530;2023-06-05T01:05:09;13.50;99.90
13203;DHT22;6666;51.626;7.530;2023-06-05T01:07:38;13.50;99.90
13203;DHT22;6666;51.626;7.530;2023-06-05T01:11:24;13.40;99.90
13203;DHT22;6666;51.626;7.530;2023-06-05T01:15:07;13.30;99.90
13203;DHT22;6666;51.626;7.530;2023-06-05T01:17:37;13.20;99.90
13203;DHT22;6666;51.626;7.530;2023-06-05T01:20:08;13.10;99.90
13203;DHT22;6666;51.626;7.530;2023-06-05T01:22:36;13.10;99.90
13203;DHT22;6666;51.626;7.530;2023-06-05T01:25:08;13.00;99.90
13203;DHT22;6666;51.626;7.530;2023-06-05T01:27:55;13.00;99.90
13203;DHT22;6666;51.626;7.530;2023-06-05T01:30:30;12.90;99.90
13203;DHT22;6666;51.626;7.530;2023-06-05T01:33:01;12.80;99.90
13203;DHT22;6666;51.626;7.530;2023-06-05T01:35:49;12.90;99.90
13203;DHT22;6666;51.626;7.530;2023-06-05T01:38:36;12.90;99.90
13203;DHT22;6666;51.626;7.530;2023-06-05T01:41:26;12.90;99.90
13203;DHT22;6666;51.626;7.530;2023-06-05T01:44:12;12.80;99.90
13203;DHT22;6666;51.626;7.530;2023-06-05T01:47:01;12.90;99.90
13203;DHT22;6666;51.626;7.530;2023-06-05T01:49:47;12.90;99.90
13203;DHT22;6666;51.626;7.530;2023-06-05T01:52:15;12.80;99.90
13203;DHT22;6666;51.626;7.530;2023-06-05T01:54:43;12.70;99.90
13203;DHT22;6666;51.626;7.530;2023-06-05T01:57:14;12.80;99.90
13203;DHT22;6666;51.626;7.530;2023-06-05T01:59:42;12.70;99.90
13203;DHT22;6666;51.626;7.530;2023-06-05T02:02:12;12.70;99.90
13203;DHT22;6666;51.626;7.530;2023-06-05T02:04:41;12.60;99.90
13203;DHT22;6666;51.626;7.530;2023-06-05T02:07:14;12.60;99.90
13203;DHT22;6666;51.626;7.530;2023-06-05T02:09:43;12.50;99.90
13203;DHT22;6666;51.626;7.530;2023-06-05T02:12:11;12.60;99.90
13203;DHT22;6666;51.626;7.530;2023-06-05T02:14:42;12.60;99.90
13203;DHT22;6666;51.626;7.530;2023-06-05T02:17:11;12.50;99.90
13203;DHT22;6666;51.626;7.530;2023-06-05T02:19:41;12.50;99.90
13203;DHT22;6666;51.626;7.530;2023-06-05T02:22:09;12.40;99.90
13203;DHT22;6666;51.626;7.530;2023-06-05T02:24:37;12.30;99.90
13203;DHT22;6666;51.626;7.530;2023-06-05T02:27:05;12.30;99.90
13203;DHT22;6666;51.626;7.530;2023-06-05T02:29:35;12.30;99.90
13203;DHT22;6666;51.626;7.530;2023-06-05T02:32:05;12.30;99.90
13203;DHT22;6666;51.626;7.530;2023-06-05T02:34:34;12.30;99.90
13203;DHT22;6666;51.626;7.530;2023-06-05T02:37:02;12.30;99.90
13203;DHT22;6666;51.626;7.530;2023-06-05T02:39:31;12.20;99.90
13203;DHT22;6666;51.626;7.530;2023-06-05T02:42:00;12.30;99.90
13203;DHT22;6666;51.626;7.530;2023-06-05T02:44:28;12.10;99.90
13203;DHT22;6666;51.626;7.530;2023-06-05T02:46:57;12.10;99.90
13203;DHT22;6666;51.626;7.530;2023-06-05T02:49:26;12.10;99.90
13203;DHT22;6666;51.626;7.530;2023-06-05T02:51:55;12.10;99.90
13203;DHT22;6666;51.626;7.530;2023-06-05T02:54:23;12.10;99.90
13203;DHT22;6666;51.626;7.530;2023-06-05T02:56:52;12.10;99.90
13203;DHT22;6666;51.626;7.530;2023-06-05T02:59:21;12.10;99.90
13203;DHT22;6666;51.626;7.530;2023-06-05T03:01:52;12.10;99.90
13203;DHT22;6666;51.626;7.530;2023-06-05T03:04:21;12.00;99.90
13203;DHT22;6666;51.626;7.530;2023-06-05T03:06:56;12.00;99.90
13203;DHT22;6666;51.626;7.530;2023-06-05T03:09:25;12.00;99.90
13203;DHT22;6666;51.626;7.530;2023-06-05T03:11:53;11.90;99.90
13203;DHT22;6666;51.626;7.530;2023-06-05T03:14:23;11.90;99.90
13203;DHT22;6666;51.626;7.530;2023-06-05T03:16:53;11.90;99.90
13203;DHT22;6666;51.626;7.530;2023-06-05T03:19:22;11.90;99.90
13203;DHT22;6666;51.626;7.530;2023-06-05T03:21:51;11.90;99.90
13203;DHT22;6666;51.626;7.530;2023-06-05T03:24:22;11.90;99.90
13203;DHT22;6666;51.626;7.530;2023-06-05T03:26:56;11.80;99.90
13203;DHT22;6666;51.626;7.530;2023-06-05T03:29:24;11.90;99.90
13203;DHT22;6666;51.626;7.530;2023-06-05T03:31:53;11.80;99.90
13203;DHT22;6666;51.626;7.530;2023-06-05T03:34:21;11.90;99.90
13203;DHT22;6666;51.626;7.530;2023-06-05T03:36:55;11.80;99.90
13203;DHT22;6666;51.626;7.530;2023-06-05T03:39:28;11.80;99.90
13203;DHT22;6666;51.626;7.530;2023-06-05T03:41:57;11.80;99.90
13203;DHT22;6666;51.626;7.530;2023-06-05T03:44:28;12.10;99.90
13203;DHT22;6666;51.626;7.530;2023-06-05T03:46:57;12.40;99.90
13203;DHT22;6666;51.626;7.530;2023-06-05T03:49:26;12.80;99.90
13203;DHT22;6666;51.626;7.530;2023-06-05T03:51:56;13.10;99.90
13203;DHT22;6666;51.626;7.530;2023-06-05T03:54:30;13.50;99.90
13203;DHT22;6666;51.626;7.530;2023-06-05T03:56:59;13.80;99.90
13203;DHT22;6666;51.626;7.530;2023-06-05T03:59:30;13.90;99.90
13203;DHT22;6666;51.626;7.530;2023-06-05T04:02:00;14.20;99.90
13203;DHT22;6666;51.626;7.530;2023-06-05T04:04:31;14.60;99.90
13203;DHT22;6666;51.626;7.530;2023-06-05T04:07:00;14.50;99.90
13203;DHT22;6666;51.626;7.530;2023-06-05T04:09:29;14.70;99.90
13203;DHT22;6666;51.626;7.530;2023-06-05T04:11:58;14.80;99.90
13203;DHT22;6666;51.626;7.530;2023-06-05T04:14:28;15.00;99.90
13203;DHT22;6666;51.626;7.530;2023-06-05T04:16:57;14.80;99.90
13203;DHT22;6666;51.626;7.530;2023-06-05T04:19:27;15.40;99.90
13203;DHT22;6666;51.626;7.530;2023-06-05T04:21:57;15.60;99.90
13203;DHT22;6666;51.626;7.530;2023-06-05T04:24:26;15.90;99.90
13203;DHT22;6666;51.626;7.530;2023-06-05T04:26:58;16.20;99.90
13203;DHT22;6666;51.626;7.530;2023-06-05T04:29:27;15.90;99.90
13203;DHT22;6666;51.626;7.530;2023-06-05T04:31:59;16.20;99.90
13203;DHT22;6666;51.626;7.530;2023-06-05T04:34:27;16.40;99.90
13203;DHT22;6666;51.626;7.530;2023-06-05T04:36:56;16.80;99.90
13203;DHT22;6666;51.626;7.530;2023-06-05T04:39:24;16.80;99.90
13203;DHT22;6666;51.626;7.530;2023-06-05T04:41:53;17.10;99.90
13203;DHT22;6666;51.626;7.530;2023-06-05T04:44:42;16.80;99.90
13203;DHT22;6666;51.626;7.530;2023-06-05T04:47:10;17.20;99.90
13203;DHT22;6666;51.626;7.530;2023-06-05T04:49:38;17.70;99.90
13203;DHT22;6666;51.626;7.530;2023-06-05T04:52:08;17.80;99.90
13203;DHT22;6666;51.626;7.530;2023-06-05T04:54:38;17.60;99.90
13203;DHT22;6666;51.626;7.530;2023-06-05T04:57:06;18.10;99.90
13203;DHT22;6666;51.626;7.530;2023-06-05T04:59:35;18.50;99.90
13203;DHT22;6666;51.626;7.530;2023-06-05T05:02:05;18.60;99.90
13203;DHT22;6666;51.626;7.530;2023-06-05T05:04:33;18.70;99.90
13203;DHT22;6666;51.626;7.530;2023-06-05T05:07:02;18.90;99.90
13203;DHT22;6666;51.626;7.530;2023-06-05T05:09:31;18.50;99.90
13203;DHT22;6666;51.626;7.530;2023-06-05T05:12:02;19.10;99.90
13203;DHT22;6666;51.626;7.530;2023-06-05T05:14:31;18.90;99.90
13203;DHT22;6666;51.626;7.530;2023-06-05T05:17:00;19.40;99.90
13203;DHT22;6666;51.626;7.530;2023-06-05T05:19:31;19.30;99.90
13203;DHT22;6666;51.626;7.530;2023-06-05T05:22:01;19.30;99.90
13203;DHT22;6666;51.626;7.530;2023-06-05T05:24:30;18.90;99.90
13203;DHT22;6666;51.626;7.530;2023-06-05T05:26:58;19.60;99.90
13203;DHT22;6666;51.626;7.530;2023-06-05T05:29:26;19.70;99.90
13203;DHT22;6666;51.626;7.530;2023-06-05T05:31:55;19.10;99.90
13203;DHT22;6666;51.626;7.530;2023-06-05T05:34:24;19.70;99.90
13203;DHT22;6666;51.626;7.530;2023-06-05T05:37:18;19.70;99.90
13203;DHT22;6666;51.626;7.530;2023-06-05T05:39:47;18.80;99.90
13203;DHT22;6666;51.626;7.530;2023-06-05T05:42:15;19.00;99.90
13203;DHT22;6666;51.626;7.530;2023-06-05T05:44:44;19.60;99.90
13203;DHT22;6666;51.626;7.530;2023-06-05T05:47:12;20.10;99.90
13203;DHT22;6666;51.626;7.530;2023-06-05T05:49:40;20.60;99.90
13203;DHT22;6666;51.626;7.530;2023-06-05T05:52:09;19.80;99.90
13203;DHT22;6666;51.626;7.530;2023-06-05T05:54:38;19.90;99.90
13203;DHT22;6666;51.626;7.530;2023-06-05T05:57:07;19.50;99.90
13203;DHT22;6666;51.626;7.530;2023-06-05T05:59:35;19.00;99.90
13203;DHT22;6666;51.626;7.530;2023-06-05T06:02:04;18.20;99.90
13203;DHT22;6666;51.626;7.530;2023-06-05T06:04:36;18.00;99.90
13203;DHT22;6666;51.626;7.530;2023-06-05T06:07:05;18.30;99.90
13203;DHT22;6666;51.626;7.530;2023-06-05T06:09:33;18.40;99.90
13203;DHT22;6666;51.626;7.530;2023-06-05T06:12:03;18.90;99.90
13203;DHT22;6666;51.626;7.530;2023-06-05T06:14:33;18.50;99.90
13203;DHT22;6666;51.626;7.530;2023-06-05T06:17:02;18.40;99.90
13203;DHT22;6666;51.626;7.530;2023-06-05T06:19:32;18.30;99.90
13203;DHT22;6666;51.626;7.530;2023-06-05T06:22:01;17.90;99.90
13203;DHT22;6666;51.626;7.530;2023-06-05T06:24:29;18.20;99.90
13203;DHT22;6666;51.626;7.530;2023-06-05T06:26:58;18.30;99.90
13203;DHT22;6666;51.626;7.530;2023-06-05T06:29:30;17.80;99.90
13203;DHT22;6666;51.626;7.530;2023-06-05T06:31:59;18.30;99.90
13203;DHT22;6666;51.626;7.530;2023-06-05T06:34:27;18.00;99.90
13203;DHT22;6666;51.626;7.530;2023-06-05T06:36:56;17.90;99.90
13203;DHT22;6666;51.626;7.530;2023-06-05T06:39:24;17.80;99.90
13203;DHT22;6666;51.626;7.530;2023-06-05T06:41:53;17.80;99.90
13203;DHT22;6666;51.626;7.530;2023-06-05T06:44:22;17.30;99.90
13203;DHT22;6666;51.626;7.530;2023-06-05T06:46:51;17.30;99.90
13203;DHT22;6666;51.626;7.530;2023-06-05T06:49:19;17.60;99.90
13203;DHT22;6666;51.626;7.530;2023-06-05T06:51:47;17.30;99.90
13203;DHT22;6666;51.626;7.530;2023-06-05T06:54:16;17.50;99.90
13203;DHT22;6666;51.626;7.530;2023-06-05T06:56:44;17.60;99.90
13203;DHT22;6666;51.626;7.530;2023-06-05T06:59:12;18.10;99.90
13203;DHT22;6666;51.626;7.530;2023-06-05T07:01:44;17.90;99.90
13203;DHT22;6666;51.626;7.530;2023-06-05T07:04:15;17.80;99.90
13203;DHT22;6666;51.626;7.530;2023-06-05T07:06:46;18.00;99.90
13203;DHT22;6666;51.626;7.530;2023-06-05T07:09:15;18.10;99.90
13203;DHT22;6666;51.626;7.530;2023-06-05T07:11:43;17.70;99.90
13203;DHT22;6666;51.626;7.530;2023-06-05T07:14:11;18.10;99.90
13203;DHT22;6666;51.626;7.530;2023-06-05T07:16:39;17.60;99.90
13203;DHT22;6666;51.626;7.530;2023-06-05T07:19:08;17.50;99.90
13203;DHT22;6666;51.626;7.530;2023-06-05T07:21:37;17.10;99.90
13203;DHT22;6666;51.626;7.530;2023-06-05T07:24:06;17.30;99.90
13203;DHT22;6666;51.626;7.530;2023-06-05T07:26:35;17.90;99.90
13203;DHT22;6666;51.626;7.530;2023-06-05T07:29:03;17.40;99.90
13203;DHT22;6666;51.626;7.530;2023-06-05T07:31:33;17.50;99.90
13203;DHT22;6666;51.626;7.530;2023-06-05T07:34:01;17.50;99.90
13203;DHT22;6666;51.626;7.530;2023-06-05T07:36:30;17.40;99.90
13203;DHT22;6666;51.626;7.530;2023-06-05T07:38:59;17.50;99.90
13203;DHT22;6666;51.626;7.530;2023-06-05T07:41:28;17.20;99.90
13203;DHT22;6666;51.626;7.530;2023-06-05T07:43:56;17.30;99.90
13203;DHT22;6666;51.626;7.530;2023-06-05T07:46:25;17.40;99.90
13203;DHT22;6666;51.626;7.530;2023-06-05T07:48:53;17.70;99.90
13203;DHT22;6666;51.626;7.530;2023-06-05T07:51:21;17.70;99.90
13203;DHT22;6666;51.626;7.530;2023-06-05T07:53:49;18.10;99.90
13203;DHT22;6666;51.626;7.530;2023-06-05T07:56:19;18.00;99.90
13203;DHT22;6666;51.626;7.530;2023-06-05T07:58:50;17.90;99.90
13203;DHT22;6666;51.626;7.530;2023-06-05T08:01:19;18.00;99.90
13203;DHT22;6666;51.626;7.530;2023-06-05T08:03:47;18.10;99.90
13203;DHT22;6666;51.626;7.530;2023-06-05T08:06:16;18.20;99.90
13203;DHT22;6666;51.626;7.530;2023-06-05T08:08:44;18.60;99.90
13203;DHT22;6666;51.626;7.530;2023-06-05T08:11:12;18.60;99.90
13203;DHT22;6666;51.626;7.530;2023-06-05T08:13:42;18.30;99.90
13203;DHT22;6666;51.626;7.530;2023-06-05T08:16:10;18.20;99.90
13203;DHT22;6666;51.626;7.530;2023-06-05T08:18:38;18.40;99.90
13203;DHT22;6666;51.626;7.530;2023-06-05T08:21:07;18.30;99.90
13203;DHT22;6666;51.626;7.530;2023-06-05T08:23:35;18.10;99.90
13203;DHT22;6666;51.626;7.530;2023-06-05T08:26:03;17.90;99.90
13203;DHT22;6666;51.626;7.530;2023-06-05T08:28:38;18.40;99.90
13203;DHT22;6666;51.626;7.530;2023-06-05T08:31:09;18.30;99.90
13203;DHT22;6666;51.626;7.530;2023-06-05T08:33:38;18.50;99.90
13203;DHT22;6666;51.626;7.530;2023-06-05T08:36:06;18.90;99.90
13203;DHT22;6666;51.626;7.530;2023-06-05T08:38:34;18.80;99.90
13203;DHT22;6666;51.626;7.530;2023-06-05T08:41:08;18.70;99.90
13203;DHT22;6666;51.626;7.530;2023-06-05T08:43:38;19.00;99.90
13203;DHT22;6666;51.626;7.530;2023-06-05T08:46:09;19.10;99.90
13203;DHT22;6666;51.626;7.530;2023-06-05T08:48:45;19.10;99.90
13203;DHT22;6666;51.626;7.530;2023-06-05T08:51:15;19.00;99.90
13203;DHT22;6666;51.626;7.530;2023-06-05T08:53:49;19.10;99.90
13203;DHT22;6666;51.626;7.530;2023-06-05T08:56:19;19.40;99.90
13203;DHT22;6666;51.626;7.530;2023-06-05T08:58:48;19.30;99.90
13203;DHT22;6666;51.626;7.530;2023-06-05T09:01:19;19.20;99.90
13203;DHT22;6666;51.626;7.530;2023-06-05T09:03:48;19.10;99.90
13203;DHT22;6666;51.626;7.530;2023-06-05T09:06:16;19.40;99.90
13203;DHT22;6666;51.626;7.530;2023-06-05T09:08:44;19.50;99.90
13203;DHT22;6666;51.626;7.530;2023-06-05T09:11:23;19.50;99.90
13203;DHT22;6666;51.626;7.530;2023-06-05T09:13:52;19.40;99.90
13203;DHT22;6666;51.626;7.530;2023-06-05T09:16:31;19.60;99.90
13203;DHT22;6666;51.626;7.530;2023-06-05T09:19:00;20.00;99.90
13203;DHT22;6666;51.626;7.530;2023-06-05T09:21:29;20.20;99.90
13203;DHT22;6666;51.626;7.530;2023-06-05T09:24:16;20.00;99.90
13203;DHT22;6666;51.626;7.530;2023-06-05T09:26:49;20.00;99.90
13203;DHT22;6666;51.626;7.530;2023-06-05T09:29:26;19.80;99.90
13203;DHT22;6666;51.626;7.530;2023-06-05T09:31:56;20.00;99.90
13203;DHT22;6666;51.626;7.530;2023-06-05T09:34:29;19.80;99.90
13203;DHT22;6666;51.626;7.530;2023-06-05T09:36:58;19.80;99.90
13203;DHT22;6666;51.626;7.530;2023-06-05T09:39:28;20.10;99.90
13203;DHT22;6666;51.626;7.530;2023-06-05T09:41:57;20.40;99.90
13203;DHT22;6666;51.626;7.530;2023-06-05T09:44:27;20.20;99.90
13203;DHT22;6666;51.626;7.530;2023-06-05T09:47:03;20.30;99.90
13203;DHT22;6666;51.626;7.530;2023-06-05T09:49:45;20.40;99.90
13203;DHT22;6666;51.626;7.530;2023-06-05T09:52:14;20.40;99.90
13203;DHT22;6666;51.626;7.530;2023-06-05T09:54:44;20.50;99.90
13203;DHT22;6666;51.626;7.530;2023-06-05T09:57:13;20.50;99.90
13203;DHT22;6666;51.626;7.530;2023-06-05T09:59:45;20.40;99.90
13203;DHT22;6666;51.626;7.530;2023-06-05T10:02:20;20.60;99.90
13203;DHT22;6666;51.626;7.530;2023-06-05T10:04:56;20.70;99.90
13203;DHT22;6666;51.626;7.530;2023-06-05T10:07:25;21.00;99.90
13203;DHT22;6666;51.626;7.530;2023-06-05T10:09:54;20.80;99.90
13203;DHT22;6666;51.626;7.530;2023-06-05T10:12:24;21.20;99.90
13203;DHT22;6666;51.626;7.530;2023-06-05T10:14:54;21.40;99.90
13203;DHT22;6666;51.626;7.530;2023-06-05T10:17:24;21.00;99.90
13203;DHT22;6666;51.626;7.530;2023-06-05T10:19:53;20.90;99.90
13203;DHT22;6666;51.626;7.530;2023-06-05T10:22:23;21.00;99.90
13203;DHT22;6666;51.626;7.530;2023-06-05T10:24:56;21.00;99.90
13203;DHT22;6666;51.626;7.530;2023-06-05T10:27:40;21.30;99.90
13203;DHT22;6666;51.626;7.530;2023-06-05T10:30:35;21.60;99.90
13203;DHT22;6666;51.626;7.530;2023-06-05T10:33:36;21.30;99.90
13203;DHT22;6666;51.626;7.530;2023-06-05T10:36:19;21.30;99.90
13203;DHT22;6666;51.626;7.530;2023-06-05T10:38:53;21.40;99.90
13203;DHT22;6666;51.626;7.530;2023-06-05T10:41:22;21.60;99.90
13203;DHT22;6666;51.626;7.530;2023-06-05T10:43:52;21.60;99.90
13203;DHT22;6666;51.626;7.530;2023-06-05T10:46:30;21.60;99.90
13203;DHT22;6666;51.626;7.530;2023-06-05T10:49:10;21.40;99.90
13203;DHT22;6666;51.626;7.530;2023-06-05T10:51:41;21.60;99.90
13203;DHT22;6666;51.626;7.530;2023-06-05T10:54:11;21.70;99.90
13203;DHT22;6666;51.626;7.530;2023-06-05T10:57:02;21.90;99.90
13203;DHT22;6666;51.626;7.530;2023-06-05T10:59:33;21.90;99.90
13203;DHT22;6666;51.626;7.530;2023-06-05T11:02:24;21.90;99.20
13203;DHT22;6666;51.626;7.530;2023-06-05T11:05:08;21.90;97.60
13203;DHT22;6666;51.626;7.530;2023-06-05T11:07:40;21.90;97.60
13203;DHT22;6666;51.626;7.530;2023-06-05T11:10:14;22.10;98.40
13203;DHT22;6666;51.626;7.530;2023-06-05T11:13:02;22.10;97.90
13203;DHT22;6666;51.626;7.530;2023-06-05T11:15:39;21.90;97.30
13203;DHT22;6666;51.626;7.530;2023-06-05T11:18:33;22.00;98.00
13203;DHT22;6666;51.626;7.530;2023-06-05T11:21:03;22.00;97.40
13203;DHT22;6666;51.626;7.530;2023-06-05T11:23:31;22.20;97.00
13203;DHT22;6666;51.626;7.530;2023-06-05T11:29:11;22.20;97.20
13203;DHT22;6666;51.626;7.530;2023-06-05T11:31:40;22.30;97.40
13203;DHT22;6666;51.626;7.530;2023-06-05T11:34:11;22.50;96.30
13203;DHT22;6666;51.626;7.530;2023-06-05T11:36:41;22.30;95.60
13203;DHT22;6666;51.626;7.530;2023-06-05T11:39:10;22.40;95.50
13203;DHT22;6666;51.626;7.530;2023-06-05T11:41:46;22.20;94.60
13203;DHT22;6666;51.626;7.530;2023-06-05T11:44:15;22.30;94.20
13203;DHT22;6666;51.626;7.530;2023-06-05T11:46:44;22.40;93.90
13203;DHT22;6666;51.626;7.530;2023-06-05T11:49:23;22.50;94.80
13203;DHT22;6666;51.626;7.530;2023-06-05T11:51:54;22.80;93.40
13203;DHT22;6666;51.626;7.530;2023-06-05T11:54:24;22.90;92.60
13203;DHT22;6666;51.626;7.530;2023-06-05T11:56:57;22.90;91.40
13203;DHT22;6666;51.626;7.530;2023-06-05T11:59:25;23.00;92.30
13203;DHT22;6666;51.626;7.530;2023-06-05T12:01:53;23.10;91.40
13203;DHT22;6666;51.626;7.530;2023-06-05T12:04:22;23.00;90.50
13203;DHT22;6666;51.626;7.530;2023-06-05T12:06:50;23.00;89.00
13203;DHT22;6666;51.626;7.530;2023-06-05T12:09:21;23.20;89.10
13203;DHT22;6666;51.626;7.530;2023-06-05T12:11:49;23.10;89.40
13203;DHT22;6666;51.626;7.530;2023-06-05T12:14:31;23.30;86.20
13203;DHT22;6666;51.626;7.530;2023-06-05T12:17:00;23.10;85.70
13203;DHT22;6666;51.626;7.530;2023-06-05T12:19:29;23.20;86.40
13203;DHT22;6666;51.626;7.530;2023-06-05T12:22:05;23.30;84.40
13203;DHT22;6666;51.626;7.530;2023-06-05T12:24:35;23.40;84.50
13203;DHT22;6666;51.626;7.530;2023-06-05T12:27:03;23.20;83.30
13203;DHT22;6666;51.626;7.530;2023-06-05T12:29:35;23.30;83.10
13203;DHT22;6666;51.626;7.530;2023-06-05T12:32:20;23.10;81.10
13203;DHT22;6666;51.626;7.530;2023-06-05T12:34:49;23.20;85.10
13203;DHT22;6666;51.626;7.530;2023-06-05T12:37:22;23.50;83.00
13203;DHT22;6666;51.626;7.530;2023-06-05T12:39:52;23.50;83.40
13203;DHT22;6666;51.626;7.530;2023-06-05T12:42:20;23.50;81.00
13203;DHT22;6666;51.626;7.530;2023-06-05T12:47:38;23.60;78.90
13203;DHT22;6666;51.626;7.530;2023-06-05T12:50:08;23.60;79.20
13203;DHT22;6666;51.626;7.530;2023-06-05T12:52:40;23.50;78.50
13203;DHT22;6666;51.626;7.530;2023-06-05T12:55:10;23.50;79.50
13203;DHT22;6666;51.626;7.530;2023-06-05T12:57:39;23.40;76.70
13203;DHT22;6666;51.626;7.530;2023-06-05T13:00:09;23.30;77.40
13203;DHT22;6666;51.626;7.530;2023-06-05T13:02:42;23.30;76.30
13203;DHT22;6666;51.626;7.530;2023-06-05T13:05:12;23.40;76.20
13203;DHT22;6666;51.626;7.530;2023-06-05T13:07:41;23.50;77.40
13203;DHT22;6666;51.626;7.530;2023-06-05T13:10:10;23.50;75.40
13203;DHT22;6666;51.626;7.530;2023-06-05T13:12:39;23.60;76.70
13203;DHT22;6666;51.626;7.530;2023-06-05T13:15:09;23.60;75.10
13203;DHT22;6666;51.626;7.530;2023-06-05T13:17:38;23.60;75.90
13203;DHT22;6666;51.626;7.530;2023-06-05T13:20:07;23.70;73.90
13203;DHT22;6666;51.626;7.530;2023-06-05T13:22:38;23.80;74.30
13203;DHT22;6666;51.626;7.530;2023-06-05T13:25:07;23.60;72.70
13203;DHT22;6666;51.626;7.530;2023-06-05T13:27:37;23.60;72.50
13203;DHT22;6666;51.626;7.530;2023-06-05T13:30:07;23.70;74.90
13203;DHT22;6666;51.626;7.530;2023-06-05T13:32:36;23.80;72.50
13203;DHT22;6666;51.626;7.530;2023-06-05T13:35:06;23.80;71.80
13203;DHT22;6666;51.626;7.530;2023-06-05T13:37:36;23.70;71.30
13203;DHT22;6666;51.626;7.530;2023-06-05T13:40:05;23.80;72.40
13203;DHT22;6666;51.626;7.530;2023-06-05T13:42:38;24.00;72.60
13203;DHT22;6666;51.626;7.530;2023-06-05T13:45:08;24.10;71.40
13203;DHT22;6666;51.626;7.530;2023-06-05T13:47:36;23.80;69.90
13203;DHT22;6666;51.626;7.530;2023-06-05T13:50:06;23.80;71.10
13203;DHT22;6666;51.626;7.530;2023-06-05T13:52:35;23.90;71.80
13203;DHT22;6666;51.626;7.530;2023-06-05T13:55:04;23.80;69.90
13203;DHT22;6666;51.626;7.530;2023-06-05T13:57:33;23.80;69.90
13203;DHT22;6666;51.626;7.530;2023-06-05T14:00:04;23.90;71.40
13203;DHT22;6666;51.626;7.530;2023-06-05T14:02:33;24.00;70.50
13203;DHT22;6666;51.626;7.530;2023-06-05T14:05:02;23.80;68.80
13203;DHT22;6666;51.626;7.530;2023-06-05T14:07:30;23.80;70.00
13203;DHT22;6666;51.626;7.530;2023-06-05T14:10:15;23.90;69.80
13203;DHT22;6666;51.626;7.530;2023-06-05T14:12:43;23.90;69.60
13203;DHT22;6666;51.626;7.530;2023-06-05T14:15:13;23.80;68.30
13203;DHT22;6666;51.626;7.530;2023-06-05T14:17:42;23.80;68.60
13203;DHT22;6666;51.626;7.530;2023-06-05T14:20:11;23.90;68.70
13203;DHT22;6666;51.626;7.530;2023-06-05T14:22:39;23.80;67.80
13203;DHT22;6666;51.626;7.530;2023-06-05T14:25:08;24.00;68.40
13203;DHT22;6666;51.626;7.530;2023-06-05T14:27:38;24.00;67.20
13203;DHT22;6666;51.626;7.530;2023-06-05T14:30:07;24.30;69.70
13203;DHT22;6666;51.626;7.530;2023-06-05T14:32:37;24.30;65.60
13203;DHT22;6666;51.626;7.530;2023-06-05T14:35:06;26.20;67.50
13203;DHT22;6666;51.626;7.530;2023-06-05T14:37:34;27.10;63.00
13203;DHT22;6666;51.626;7.530;2023-06-05T14:40:03;28.50;60.20
13203;DHT22;6666;51.626;7.530;2023-06-05T14:42:32;28.10;57.40
13203;DHT22;6666;51.626;7.530;2023-06-05T14:45:00;28.30;57.80
13203;DHT22;6666;51.626;7.530;2023-06-05T14:47:29;27.90;57.80
13203;DHT22;6666;51.626;7.530;2023-06-05T14:49:59;27.60;56.70
13203;DHT22;6666;51.626;7.530;2023-06-05T14:52:27;26.90;57.80
13203;DHT22;6666;51.626;7.530;2023-06-05T14:54:55;28.00;56.80
13203;DHT22;6666;51.626;7.530;2023-06-05T14:57:29;27.50;56.50
13203;DHT22;6666;51.626;7.530;2023-06-05T14:59:57;26.70;56.90
13203;DHT22;6666;51.626;7.530;2023-06-05T15:02:26;27.00;56.70
13203;DHT22;6666;51.626;7.530;2023-06-05T15:04:54;26.70;57.90
13203;DHT22;6666;51.626;7.530;2023-06-05T15:07:35;26.50;57.60
13203;DHT22;6666;51.626;7.530;2023-06-05T15:10:04;25.90;57.40
13203;DHT22;6666;51.626;7.530;2023-06-05T15:12:32;25.80;58.40
13203;DHT22;6666;51.626;7.530;2023-06-05T15:15:00;25.60;58.50
13203;DHT22;6666;51.626;7.530;2023-06-05T15:17:46;25.30;57.80
13203;DHT22;6666;51.626;7.530;2023-06-05T15:20:15;24.80;58.00
13203;DHT22;6666;51.626;7.530;2023-06-05T15:22:45;24.80;59.50
13203;DHT22;6666;51.626;7.530;2023-06-05T15:25:20;24.70;59.00
13203;DHT22;6666;51.626;7.530;2023-06-05T15:27:50;24.60;58.30
13203;DHT22;6666;51.626;7.530;2023-06-05T15:30:18;24.40;58.80
13203;DHT22;6666;51.626;7.530;2023-06-05T15:32:47;24.20;58.40
13203;DHT22;6666;51.626;7.530;2023-06-05T15:35:15;24.10;58.40
13203;DHT22;6666;51.626;7.530;2023-06-05T15:37:45;24.20;59.20
13203;DHT22;6666;51.626;7.530;2023-06-05T15:40:13;24.20;59.00
13203;DHT22;6666;51.626;7.530;2023-06-05T15:42:43;24.30;59.10
13203;DHT22;6666;51.626;7.530;2023-06-05T15:45:13;24.10;59.10
13203;DHT22;6666;51.626;7.530;2023-06-05T15:47:42;24.10;58.50
13203;DHT22;6666;51.626;7.530;2023-06-05T15:50:10;24.10;59.50
13203;DHT22;6666;51.626;7.530;2023-06-05T15:52:40;24.10;58.80
13203;DHT22;6666;51.626;7.530;2023-06-05T15:55:10;24.00;59.20
13203;DHT22;6666;51.626;7.530;2023-06-05T15:57:38;24.00;59.00
13203;DHT22;6666;51.626;7.530;2023-06-05T16:00:08;24.00;58.70
13203;DHT22;6666;51.626;7.530;2023-06-05T16:02:36;23.80;58.80
13203;DHT22;6666;51.626;7.530;2023-06-05T16:05:06;24.00;59.60
13203;DHT22;6666;51.626;7.530;2023-06-05T16:07:34;24.00;59.90
13203;DHT22;6666;51.626;7.530;2023-06-05T16:10:03;24.00;58.80
13203;DHT22;6666;51.626;7.530;2023-06-05T16:12:33;24.00;58.90
13203;DHT22;6666;51.626;7.530;2023-06-05T16:15:01;24.00;59.50